sensor_id;sensor_type;location;lat;lon;timestamp;P1;durP1;ratioP1;P2;durP2;ratioP2
71606;SDS011;60641;53.556;9.914;2023-03-25T00:02:04;5.70;;;1.70;;
71606;SDS011;60641;53.556;9.914;2023-03-25T00:04:32;8.00;;;1.80;;
71606;SDS011;60641;53.556;9.914;2023-03-25T00:07:00;7.30;;;1.80;;
71606;SDS011;60641;53.556;9.914;2023-03-25T00:09:26;7.10;;;1.90;;
71606;SDS011;60641;53.556;9.914;2023-03-25T00:11:53;6.40;;;1.90;;
71606;SDS011;60641;53.556;9.914;2023-03-25T00:14:20;7.50;;;2.10;;
71606;SDS011;60641;53.556;9.914;2023-03-25T00:16:46;10.20;;;2.70;;
71606;SDS011;60641;53.556;9.914;2023-03-25T00:19:14;8.20;;;2.20;;
71606;SDS011;60641;53.556;9.914;2023-03-25T00:21:43;7.10;;;2.00;;
71606;SDS011;60641;53.556;9.914;2023-03-25T00:24:10;7.90;;;2.40;;
71606;SDS011;60641;53.556;9.914;2023-03-25T00:26:46;7.90;;;2.10;;
71606;SDS011;60641;53.556;9.914;2023-03-25T00:29:14;8.30;;;2.50;;
71606;SDS011;60641;53.556;9.914;2023-03-25T00:31:41;8.70;;;2.40;;
71606;SDS011;60641;53.556;9.914;2023-03-25T00:34:08;7.00;;;2.10;;
71606;SDS011;60641;53.556;9.914;2023-03-25T00:36:39;7.90;;;2.40;;
71606;SDS011;60641;53.556;9.914;2023-03-25T00:39:06;7.30;;;2.30;;
71606;SDS011;60641;53.556;9.914;2023-03-25T00:41:33;6.90;;;2.30;;
71606;SDS011;60641;53.556;9.914;2023-03-25T00:44:02;9.00;;;2.50;;
71606;SDS011;60641;53.556;9.914;2023-03-25T00:46:30;8.10;;;2.50;;
71606;SDS011;60641;53.556;9.914;2023-03-25T00:48:58;8.80;;;2.70;;
71606;SDS011;60641;53.556;9.914;2023-03-25T00:51:25;6.50;;;2.20;;
71606;SDS011;60641;53.556;9.914;2023-03-25T00:53:56;6.50;;;2.00;;
71606;SDS011;60641;53.556;9.914;2023-03-25T00:56:27;7.30;;;2.50;;
71606;SDS011;60641;53.556;9.914;2023-03-25T00:58:55;7.80;;;2.50;;
71606;SDS011;60641;53.556;9.914;2023-03-25T01:01:23;5.00;;;1.60;;
71606;SDS011;60641;53.556;9.914;2023-03-25T01:03:55;6.10;;;2.30;;
71606;SDS011;60641;53.556;9.914;2023-03-25T01:06:26;8.60;;;2.20;;
71606;SDS011;60641;53.556;9.914;2023-03-25T01:08:55;6.90;;;2.20;;
71606;SDS011;60641;53.556;9.914;2023-03-25T01:11:24;11.00;;;2.60;;
71606;SDS011;60641;53.556;9.914;2023-03-25T01:13:55;7.80;;;2.40;;
71606;SDS011;60641;53.556;9.914;2023-03-25T01:16:24;7.20;;;2.40;;
71606;SDS011;60641;53.556;9.914;2023-03-25T01:18:52;7.30;;;2.30;;
71606;SDS011;60641;53.556;9.914;2023-03-25T01:21:19;6.70;;;2.30;;
71606;SDS011;60641;53.556;9.914;2023-03-25T01:23:46;7.60;;;2.10;;
71606;SDS011;60641;53.556;9.914;2023-03-25T01:26:12;9.20;;;2.50;;
71606;SDS011;60641;53.556;9.914;2023-03-25T01:28:39;8.80;;;2.50;;
71606;SDS011;60641;53.556;9.914;2023-03-25T01:31:07;7.30;;;2.40;;
71606;SDS011;60641;53.556;9.914;2023-03-25T01:33:35;7.60;;;2.10;;
71606;SDS011;60641;53.556;9.914;2023-03-25T01:36:02;6.80;;;2.30;;
71606;SDS011;60641;53.556;9.914;2023-03-25T01:38:29;7.80;;;2.40;;
71606;SDS011;60641;53.556;9.914;2023-03-25T01:40:55;8.60;;;2.20;;
71606;SDS011;60641;53.556;9.914;2023-03-25T01:43:22;9.60;;;2.50;;
71606;SDS011;60641;53.556;9.914;2023-03-25T01:45:49;6.30;;;1.90;;
71606;SDS011;60641;53.556;9.914;2023-03-25T01:48:18;7.10;;;2.20;;
71606;SDS011;60641;53.556;9.914;2023-03-25T01:50:54;7.90;;;2.30;;
71606;SDS011;60641;53.556;9.914;2023-03-25T01:53:25;6.70;;;1.90;;
71606;SDS011;60641;53.556;9.914;2023-03-25T01:55:53;10.10;;;2.40;;
71606;SDS011;60641;53.556;9.914;2023-03-25T01:58:20;6.50;;;2.10;;
71606;SDS011;60641;53.556;9.914;2023-03-25T02:00:47;7.00;;;2.10;;
71606;SDS011;60641;53.556;9.914;2023-03-25T02:03:15;8.50;;;2.50;;
71606;SDS011;60641;53.556;9.914;2023-03-25T02:08:19;6.90;;;2.20;;
71606;SDS011;60641;53.556;9.914;2023-03-25T02:10:47;8.10;;;2.50;;
71606;SDS011;60641;53.556;9.914;2023-03-25T02:13:13;6.50;;;1.90;;
71606;SDS011;60641;53.556;9.914;2023-03-25T02:15:56;6.20;;;2.10;;
71606;SDS011;60641;53.556;9.914;2023-03-25T02:21:51;10.20;;;2.20;;
71606;SDS011;60641;53.556;9.914;2023-03-25T02:27:14;10.10;;;2.50;;
71606;SDS011;60641;53.556;9.914;2023-03-25T02:35:27;6.80;;;2.00;;
71606;SDS011;60641;53.556;9.914;2023-03-25T02:38:06;7.20;;;2.00;;
71606;SDS011;60641;53.556;9.914;2023-03-25T02:43:56;7.80;;;2.10;;
71606;SDS011;60641;53.556;9.914;2023-03-25T02:46:26;7.00;;;2.10;;
71606;SDS011;60641;53.556;9.914;2023-03-25T02:48:55;8.40;;;1.80;;
71606;SDS011;60641;53.556;9.914;2023-03-25T02:51:27;8.30;;;2.10;;
71606;SDS011;60641;53.556;9.914;2023-03-25T02:53:57;8.70;;;1.90;;
71606;SDS011;60641;53.556;9.914;2023-03-25T02:56:30;8.00;;;1.80;;
71606;SDS011;60641;53.556;9.914;2023-03-25T02:58:58;8.20;;;2.10;;
71606;SDS011;60641;53.556;9.914;2023-03-25T03:01:25;6.30;;;2.00;;
71606;SDS011;60641;53.556;9.914;2023-03-25T03:03:52;7.80;;;2.00;;
71606;SDS011;60641;53.556;9.914;2023-03-25T03:06:19;7.50;;;1.80;;
71606;SDS011;60641;53.556;9.914;2023-03-25T03:11:18;10.00;;;1.90;;
71606;SDS011;60641;53.556;9.914;2023-03-25T03:22:01;7.10;;;1.90;;
71606;SDS011;60641;53.556;9.914;2023-03-25T03:24:49;9.10;;;2.40;;
71606;SDS011;60641;53.556;9.914;2023-03-25T03:27:34;11.80;;;2.20;;
71606;SDS011;60641;53.556;9.914;2023-03-25T03:33:09;7.20;;;2.00;;
71606;SDS011;60641;53.556;9.914;2023-03-25T03:35:44;7.30;;;2.10;;
71606;SDS011;60641;53.556;9.914;2023-03-25T03:38:18;8.00;;;2.20;;
71606;SDS011;60641;53.556;9.914;2023-03-25T03:40:48;9.20;;;2.30;;
71606;SDS011;60641;53.556;9.914;2023-03-25T03:43:29;8.00;;;2.60;;
71606;SDS011;60641;53.556;9.914;2023-03-25T03:45:59;9.40;;;1.90;;
71606;SDS011;60641;53.556;9.914;2023-03-25T03:48:30;8.70;;;1.80;;
71606;SDS011;60641;53.556;9.914;2023-03-25T03:51:02;5.80;;;1.80;;
71606;SDS011;60641;53.556;9.914;2023-03-25T03:53:40;9.20;;;2.10;;
71606;SDS011;60641;53.556;9.914;2023-03-25T03:59:08;7.70;;;1.80;;
71606;SDS011;60641;53.556;9.914;2023-03-25T04:01:40;8.50;;;1.90;;
71606;SDS011;60641;53.556;9.914;2023-03-25T04:04:14;5.20;;;1.60;;
71606;SDS011;60641;53.556;9.914;2023-03-25T04:09:18;5.70;;;1.70;;
71606;SDS011;60641;53.556;9.914;2023-03-25T04:11:57;6.50;;;1.50;;
71606;SDS011;60641;53.556;9.914;2023-03-25T04:14:26;4.70;;;1.60;;
71606;SDS011;60641;53.556;9.914;2023-03-25T04:16:53;5.90;;;1.50;;
71606;SDS011;60641;53.556;9.914;2023-03-25T04:19:20;5.90;;;1.60;;
71606;SDS011;60641;53.556;9.914;2023-03-25T04:21:46;8.30;;;1.60;;
71606;SDS011;60641;53.556;9.914;2023-03-25T04:24:14;7.40;;;1.50;;
71606;SDS011;60641;53.556;9.914;2023-03-25T04:26:42;4.20;;;1.30;;
71606;SDS011;60641;53.556;9.914;2023-03-25T04:29:08;9.00;;;1.70;;
71606;SDS011;60641;53.556;9.914;2023-03-25T04:31:35;5.80;;;1.40;;
71606;SDS011;60641;53.556;9.914;2023-03-25T04:34:02;5.30;;;1.50;;
71606;SDS011;60641;53.556;9.914;2023-03-25T04:36:29;8.50;;;1.50;;
71606;SDS011;60641;53.556;9.914;2023-03-25T04:39:02;5.90;;;1.20;;
71606;SDS011;60641;53.556;9.914;2023-03-25T04:41:30;7.10;;;1.60;;
71606;SDS011;60641;53.556;9.914;2023-03-25T04:44:02;4.40;;;1.30;;
71606;SDS011;60641;53.556;9.914;2023-03-25T04:46:32;6.00;;;1.80;;
71606;SDS011;60641;53.556;9.914;2023-03-25T04:49:02;5.50;;;1.40;;
71606;SDS011;60641;53.556;9.914;2023-03-25T04:51:31;6.90;;;1.60;;
71606;SDS011;60641;53.556;9.914;2023-03-25T04:53:58;5.70;;;1.50;;
71606;SDS011;60641;53.556;9.914;2023-03-25T04:56:24;7.00;;;1.40;;
71606;SDS011;60641;53.556;9.914;2023-03-25T04:58:50;5.60;;;1.60;;
71606;SDS011;60641;53.556;9.914;2023-03-25T05:01:19;5.80;;;1.50;;
71606;SDS011;60641;53.556;9.914;2023-03-25T05:03:49;6.10;;;1.30;;
71606;SDS011;60641;53.556;9.914;2023-03-25T05:06:16;6.70;;;1.50;;
71606;SDS011;60641;53.556;9.914;2023-03-25T05:08:43;5.10;;;1.40;;
71606;SDS011;60641;53.556;9.914;2023-03-25T05:11:09;6.90;;;1.70;;
71606;SDS011;60641;53.556;9.914;2023-03-25T05:13:36;6.40;;;1.40;;
71606;SDS011;60641;53.556;9.914;2023-03-25T05:16:03;8.00;;;1.60;;
71606;SDS011;60641;53.556;9.914;2023-03-25T05:18:29;7.30;;;1.60;;
71606;SDS011;60641;53.556;9.914;2023-03-25T05:20:57;7.50;;;1.50;;
71606;SDS011;60641;53.556;9.914;2023-03-25T05:23:24;8.60;;;1.70;;
71606;SDS011;60641;53.556;9.914;2023-03-25T05:25:51;7.20;;;1.50;;
71606;SDS011;60641;53.556;9.914;2023-03-25T05:28:17;5.90;;;1.40;;
71606;SDS011;60641;53.556;9.914;2023-03-25T05:30:44;4.90;;;1.30;;
71606;SDS011;60641;53.556;9.914;2023-03-25T05:33:12;6.70;;;1.40;;
71606;SDS011;60641;53.556;9.914;2023-03-25T05:35:43;7.80;;;1.80;;
71606;SDS011;60641;53.556;9.914;2023-03-25T05:38:10;6.50;;;1.30;;
71606;SDS011;60641;53.556;9.914;2023-03-25T05:40:37;7.50;;;1.60;;
71606;SDS011;60641;53.556;9.914;2023-03-25T05:43:05;4.50;;;1.40;;
71606;SDS011;60641;53.556;9.914;2023-03-25T05:45:32;5.00;;;1.30;;
71606;SDS011;60641;53.556;9.914;2023-03-25T05:48:01;5.80;;;1.20;;
71606;SDS011;60641;53.556;9.914;2023-03-25T05:50:28;6.10;;;1.20;;
71606;SDS011;60641;53.556;9.914;2023-03-25T05:52:55;5.20;;;1.30;;
71606;SDS011;60641;53.556;9.914;2023-03-25T05:55:22;4.80;;;1.30;;
71606;SDS011;60641;53.556;9.914;2023-03-25T05:57:49;5.40;;;1.00;;
71606;SDS011;60641;53.556;9.914;2023-03-25T06:00:16;5.00;;;1.20;;
71606;SDS011;60641;53.556;9.914;2023-03-25T06:02:46;9.00;;;1.30;;
71606;SDS011;60641;53.556;9.914;2023-03-25T06:05:14;5.20;;;1.30;;
71606;SDS011;60641;53.556;9.914;2023-03-25T06:07:42;6.30;;;1.10;;
71606;SDS011;60641;53.556;9.914;2023-03-25T06:10:13;5.50;;;1.50;;
71606;SDS011;60641;53.556;9.914;2023-03-25T06:12:44;5.60;;;1.30;;
71606;SDS011;60641;53.556;9.914;2023-03-25T06:15:12;6.40;;;1.30;;
71606;SDS011;60641;53.556;9.914;2023-03-25T06:17:39;7.60;;;1.50;;
71606;SDS011;60641;53.556;9.914;2023-03-25T06:20:07;6.30;;;1.30;;
71606;SDS011;60641;53.556;9.914;2023-03-25T06:22:41;6.40;;;1.30;;
71606;SDS011;60641;53.556;9.914;2023-03-25T06:25:10;9.20;;;1.90;;
71606;SDS011;60641;53.556;9.914;2023-03-25T06:27:37;5.90;;;1.40;;
71606;SDS011;60641;53.556;9.914;2023-03-25T06:30:07;7.60;;;1.80;;
71606;SDS011;60641;53.556;9.914;2023-03-25T06:32:36;6.40;;;1.60;;
71606;SDS011;60641;53.556;9.914;2023-03-25T06:35:03;8.90;;;1.80;;
71606;SDS011;60641;53.556;9.914;2023-03-25T06:37:31;7.20;;;1.70;;
71606;SDS011;60641;53.556;9.914;2023-03-25T06:39:58;8.60;;;1.80;;
71606;SDS011;60641;53.556;9.914;2023-03-25T06:42:25;7.20;;;1.70;;
71606;SDS011;60641;53.556;9.914;2023-03-25T06:44:53;9.10;;;1.60;;
71606;SDS011;60641;53.556;9.914;2023-03-25T06:47:20;9.90;;;2.00;;
71606;SDS011;60641;53.556;9.914;2023-03-25T06:49:47;5.80;;;1.50;;
71606;SDS011;60641;53.556;9.914;2023-03-25T06:52:14;7.80;;;1.90;;
71606;SDS011;60641;53.556;9.914;2023-03-25T06:54:41;6.10;;;1.30;;
71606;SDS011;60641;53.556;9.914;2023-03-25T06:57:07;6.20;;;1.20;;
71606;SDS011;60641;53.556;9.914;2023-03-25T06:59:34;4.90;;;1.10;;
71606;SDS011;60641;53.556;9.914;2023-03-25T07:02:00;5.30;;;1.10;;
71606;SDS011;60641;53.556;9.914;2023-03-25T07:04:27;4.60;;;1.20;;
71606;SDS011;60641;53.556;9.914;2023-03-25T07:06:53;5.40;;;1.50;;
71606;SDS011;60641;53.556;9.914;2023-03-25T07:09:20;6.40;;;1.70;;
71606;SDS011;60641;53.556;9.914;2023-03-25T07:11:46;7.30;;;1.50;;
71606;SDS011;60641;53.556;9.914;2023-03-25T07:14:13;7.30;;;1.70;;
71606;SDS011;60641;53.556;9.914;2023-03-25T07:16:39;7.20;;;1.60;;
71606;SDS011;60641;53.556;9.914;2023-03-25T07:19:06;6.90;;;1.50;;
71606;SDS011;60641;53.556;9.914;2023-03-25T07:21:32;7.10;;;1.70;;
71606;SDS011;60641;53.556;9.914;2023-03-25T07:23:59;8.80;;;1.60;;
71606;SDS011;60641;53.556;9.914;2023-03-25T07:26:25;12.60;;;2.10;;
71606;SDS011;60641;53.556;9.914;2023-03-25T07:28:52;7.70;;;1.60;;
71606;SDS011;60641;53.556;9.914;2023-03-25T07:31:18;9.20;;;1.30;;
71606;SDS011;60641;53.556;9.914;2023-03-25T07:33:45;7.80;;;1.30;;
71606;SDS011;60641;53.556;9.914;2023-03-25T07:36:12;9.20;;;2.00;;
71606;SDS011;60641;53.556;9.914;2023-03-25T07:38:39;8.50;;;1.90;;
71606;SDS011;60641;53.556;9.914;2023-03-25T07:41:06;9.50;;;1.40;;
71606;SDS011;60641;53.556;9.914;2023-03-25T07:43:34;7.50;;;1.70;;
71606;SDS011;60641;53.556;9.914;2023-03-25T07:46:00;7.90;;;1.50;;
71606;SDS011;60641;53.556;9.914;2023-03-25T07:48:27;6.80;;;1.30;;
71606;SDS011;60641;53.556;9.914;2023-03-25T07:50:53;8.10;;;1.70;;
71606;SDS011;60641;53.556;9.914;2023-03-25T07:53:20;6.90;;;1.50;;
71606;SDS011;60641;53.556;9.914;2023-03-25T07:55:47;7.30;;;1.30;;
71606;SDS011;60641;53.556;9.914;2023-03-25T07:58:16;7.20;;;1.30;;
71606;SDS011;60641;53.556;9.914;2023-03-25T08:00:43;7.50;;;1.30;;
71606;SDS011;60641;53.556;9.914;2023-03-25T08:03:11;5.80;;;1.20;;
71606;SDS011;60641;53.556;9.914;2023-03-25T08:05:38;5.40;;;1.20;;
71606;SDS011;60641;53.556;9.914;2023-03-25T08:08:12;5.40;;;1.10;;
71606;SDS011;60641;53.556;9.914;2023-03-25T08:10:42;6.00;;;1.00;;
71606;SDS011;60641;53.556;9.914;2023-03-25T08:13:09;6.40;;;1.20;;
71606;SDS011;60641;53.556;9.914;2023-03-25T08:15:37;5.70;;;1.20;;
71606;SDS011;60641;53.556;9.914;2023-03-25T08:18:04;5.00;;;1.20;;
71606;SDS011;60641;53.556;9.914;2023-03-25T08:20:32;6.70;;;1.10;;
71606;SDS011;60641;53.556;9.914;2023-03-25T08:22:59;6.20;;;1.30;;
71606;SDS011;60641;53.556;9.914;2023-03-25T08:25:25;10.40;;;1.30;;
71606;SDS011;60641;53.556;9.914;2023-03-25T08:27:53;7.10;;;1.20;;
71606;SDS011;60641;53.556;9.914;2023-03-25T08:30:20;7.90;;;1.40;;
71606;SDS011;60641;53.556;9.914;2023-03-25T08:32:47;5.70;;;1.00;;
71606;SDS011;60641;53.556;9.914;2023-03-25T08:35:19;6.30;;;1.10;;
71606;SDS011;60641;53.556;9.914;2023-03-25T08:37:47;5.10;;;1.00;;
71606;SDS011;60641;53.556;9.914;2023-03-25T08:40:14;6.40;;;1.20;;
71606;SDS011;60641;53.556;9.914;2023-03-25T08:42:42;6.90;;;1.20;;
71606;SDS011;60641;53.556;9.914;2023-03-25T08:45:09;7.20;;;1.00;;
71606;SDS011;60641;53.556;9.914;2023-03-25T08:47:36;8.90;;;1.50;;
71606;SDS011;60641;53.556;9.914;2023-03-25T08:50:02;7.50;;;1.50;;
71606;SDS011;60641;53.556;9.914;2023-03-25T08:52:30;7.10;;;1.00;;
71606;SDS011;60641;53.556;9.914;2023-03-25T08:54:56;9.10;;;1.30;;
71606;SDS011;60641;53.556;9.914;2023-03-25T08:57:23;7.60;;;1.20;;
71606;SDS011;60641;53.556;9.914;2023-03-25T08:59:49;6.40;;;0.90;;
71606;SDS011;60641;53.556;9.914;2023-03-25T09:02:16;5.00;;;1.00;;
71606;SDS011;60641;53.556;9.914;2023-03-25T09:04:42;3.50;;;0.70;;
71606;SDS011;60641;53.556;9.914;2023-03-25T09:07:09;3.80;;;0.60;;
71606;SDS011;60641;53.556;9.914;2023-03-25T09:09:39;4.10;;;0.60;;
71606;SDS011;60641;53.556;9.914;2023-03-25T09:12:06;4.90;;;0.80;;
71606;SDS011;60641;53.556;9.914;2023-03-25T09:14:33;3.30;;;0.70;;
71606;SDS011;60641;53.556;9.914;2023-03-25T09:16:59;3.40;;;0.70;;
71606;SDS011;60641;53.556;9.914;2023-03-25T09:19:26;4.40;;;0.70;;
71606;SDS011;60641;53.556;9.914;2023-03-25T09:21:52;3.80;;;0.60;;
71606;SDS011;60641;53.556;9.914;2023-03-25T09:24:19;2.50;;;0.70;;
71606;SDS011;60641;53.556;9.914;2023-03-25T09:26:47;3.50;;;0.60;;
71606;SDS011;60641;53.556;9.914;2023-03-25T09:29:14;4.30;;;0.80;;
71606;SDS011;60641;53.556;9.914;2023-03-25T09:31:41;5.60;;;0.70;;
71606;SDS011;60641;53.556;9.914;2023-03-25T09:34:07;3.10;;;0.60;;
71606;SDS011;60641;53.556;9.914;2023-03-25T09:36:34;5.40;;;0.70;;
71606;SDS011;60641;53.556;9.914;2023-03-25T09:39:02;4.00;;;0.50;;
71606;SDS011;60641;53.556;9.914;2023-03-25T09:41:53;3.70;;;0.60;;
71606;SDS011;60641;53.556;9.914;2023-03-25T09:47:21;2.80;;;0.50;;
71606;SDS011;60641;53.556;9.914;2023-03-25T09:49:51;3.10;;;0.60;;
71606;SDS011;60641;53.556;9.914;2023-03-25T09:52:24;2.80;;;0.60;;
71606;SDS011;60641;53.556;9.914;2023-03-25T09:54:57;3.40;;;0.60;;
71606;SDS011;60641;53.556;9.914;2023-03-25T09:57:49;2.70;;;0.50;;
71606;SDS011;60641;53.556;9.914;2023-03-25T10:00:17;2.90;;;0.50;;
71606;SDS011;60641;53.556;9.914;2023-03-25T10:03:06;3.70;;;0.50;;
71606;SDS011;60641;53.556;9.914;2023-03-25T10:11:03;4.40;;;0.90;;
71606;SDS011;60641;53.556;9.914;2023-03-25T10:13:38;3.90;;;1.10;;
71606;SDS011;60641;53.556;9.914;2023-03-25T10:16:28;4.70;;;1.10;;
71606;SDS011;60641;53.556;9.914;2023-03-25T10:29:34;7.20;;;1.10;;
71606;SDS011;60641;53.556;9.914;2023-03-25T10:32:10;5.60;;;0.80;;
71606;SDS011;60641;53.556;9.914;2023-03-25T10:34:44;4.20;;;0.90;;
71606;SDS011;60641;53.556;9.914;2023-03-25T10:37:19;9.00;;;1.10;;
71606;SDS011;60641;53.556;9.914;2023-03-25T10:39:54;4.40;;;0.80;;
71606;SDS011;60641;53.556;9.914;2023-03-25T10:42:25;4.20;;;0.80;;
71606;SDS011;60641;53.556;9.914;2023-03-25T10:44:54;8.10;;;1.40;;
71606;SDS011;60641;53.556;9.914;2023-03-25T10:47:25;6.00;;;1.00;;
71606;SDS011;60641;53.556;9.914;2023-03-25T10:49:53;5.60;;;1.00;;
71606;SDS011;60641;53.556;9.914;2023-03-25T10:52:21;4.90;;;0.90;;
71606;SDS011;60641;53.556;9.914;2023-03-25T10:54:49;7.00;;;1.10;;
71606;SDS011;60641;53.556;9.914;2023-03-25T10:57:19;3.90;;;0.70;;
71606;SDS011;60641;53.556;9.914;2023-03-25T11:02:31;6.30;;;1.00;;
71606;SDS011;60641;53.556;9.914;2023-03-25T11:05:00;6.20;;;0.80;;
71606;SDS011;60641;53.556;9.914;2023-03-25T11:07:39;8.60;;;1.00;;
71606;SDS011;60641;53.556;9.914;2023-03-25T11:10:25;5.80;;;0.90;;
71606;SDS011;60641;53.556;9.914;2023-03-25T11:12:53;4.40;;;0.70;;
71606;SDS011;60641;53.556;9.914;2023-03-25T11:15:25;5.00;;;0.60;;
71606;SDS011;60641;53.556;9.914;2023-03-25T11:18:06;4.30;;;0.80;;
71606;SDS011;60641;53.556;9.914;2023-03-25T11:20:45;5.10;;;0.70;;
71606;SDS011;60641;53.556;9.914;2023-03-25T11:23:21;6.00;;;1.10;;
71606;SDS011;60641;53.556;9.914;2023-03-25T11:26:01;5.10;;;1.20;;
71606;SDS011;60641;53.556;9.914;2023-03-25T11:31:08;4.80;;;0.80;;
71606;SDS011;60641;53.556;9.914;2023-03-25T11:33:41;4.50;;;0.70;;
71606;SDS011;60641;53.556;9.914;2023-03-25T11:38:51;3.30;;;0.70;;
71606;SDS011;60641;53.556;9.914;2023-03-25T11:41:22;2.90;;;0.50;;
71606;SDS011;60641;53.556;9.914;2023-03-25T11:43:49;1.90;;;0.50;;
71606;SDS011;60641;53.556;9.914;2023-03-25T11:46:17;3.70;;;0.70;;
71606;SDS011;60641;53.556;9.914;2023-03-25T11:48:46;4.00;;;0.60;;
71606;SDS011;60641;53.556;9.914;2023-03-25T11:51:24;3.00;;;0.60;;
71606;SDS011;60641;53.556;9.914;2023-03-25T11:53:58;2.70;;;0.60;;
71606;SDS011;60641;53.556;9.914;2023-03-25T11:56:32;4.40;;;0.80;;
71606;SDS011;60641;53.556;9.914;2023-03-25T11:59:01;4.50;;;0.70;;
71606;SDS011;60641;53.556;9.914;2023-03-25T12:01:43;4.70;;;0.60;;
71606;SDS011;60641;53.556;9.914;2023-03-25T12:04:14;5.40;;;1.10;;
71606;SDS011;60641;53.556;9.914;2023-03-25T12:07:00;3.50;;;0.80;;
71606;SDS011;60641;53.556;9.914;2023-03-25T12:09:34;3.00;;;0.70;;
71606;SDS011;60641;53.556;9.914;2023-03-25T12:12:48;4.20;;;0.70;;
71606;SDS011;60641;53.556;9.914;2023-03-25T12:26:00;4.80;;;0.70;;
71606;SDS011;60641;53.556;9.914;2023-03-25T12:31:26;5.70;;;0.70;;
71606;SDS011;60641;53.556;9.914;2023-03-25T12:34:47;3.90;;;0.80;;
71606;SDS011;60641;53.556;9.914;2023-03-25T12:50:18;6.20;;;0.90;;
71606;SDS011;60641;53.556;9.914;2023-03-25T12:55:26;7.10;;;0.70;;
71606;SDS011;60641;53.556;9.914;2023-03-25T12:58:02;4.30;;;0.70;;
71606;SDS011;60641;53.556;9.914;2023-03-25T13:09:09;7.90;;;1.20;;
71606;SDS011;60641;53.556;9.914;2023-03-25T13:11:43;5.00;;;0.80;;
71606;SDS011;60641;53.556;9.914;2023-03-25T13:14:14;6.00;;;1.20;;
71606;SDS011;60641;53.556;9.914;2023-03-25T13:16:43;6.80;;;1.10;;
71606;SDS011;60641;53.556;9.914;2023-03-25T13:19:18;4.40;;;0.90;;
71606;SDS011;60641;53.556;9.914;2023-03-25T13:21:46;5.80;;;1.00;;
71606;SDS011;60641;53.556;9.914;2023-03-25T13:24:22;7.90;;;1.70;;
71606;SDS011;60641;53.556;9.914;2023-03-25T13:26:53;9.70;;;1.50;;
71606;SDS011;60641;53.556;9.914;2023-03-25T13:31:52;5.90;;;1.10;;
71606;SDS011;60641;53.556;9.914;2023-03-25T13:34:39;3.60;;;0.90;;
71606;SDS011;60641;53.556;9.914;2023-03-25T13:37:11;7.00;;;1.50;;
71606;SDS011;60641;53.556;9.914;2023-03-25T13:43:00;4.30;;;0.70;;
71606;SDS011;60641;53.556;9.914;2023-03-25T13:48:21;4.90;;;0.90;;
71606;SDS011;60641;53.556;9.914;2023-03-25T13:50:55;5.10;;;1.00;;
71606;SDS011;60641;53.556;9.914;2023-03-25T14:01:35;4.50;;;1.00;;
71606;SDS011;60641;53.556;9.914;2023-03-25T14:15:39;4.70;;;0.80;;
71606;SDS011;60641;53.556;9.914;2023-03-25T14:18:47;6.20;;;0.70;;
71606;SDS011;60641;53.556;9.914;2023-03-25T14:26:28;4.80;;;0.50;;
71606;SDS011;60641;53.556;9.914;2023-03-25T14:28:56;4.50;;;0.70;;
71606;SDS011;60641;53.556;9.914;2023-03-25T14:31:30;4.20;;;0.60;;
71606;SDS011;60641;53.556;9.914;2023-03-25T14:39:09;4.60;;;0.80;;
71606;SDS011;60641;53.556;9.914;2023-03-25T14:44:36;7.30;;;0.70;;
71606;SDS011;60641;53.556;9.914;2023-03-25T14:49:49;4.70;;;0.60;;
71606;SDS011;60641;53.556;9.914;2023-03-25T14:52:39;5.80;;;0.70;;
71606;SDS011;60641;53.556;9.914;2023-03-25T14:55:44;5.20;;;0.90;;
71606;SDS011;60641;53.556;9.914;2023-03-25T14:58:17;4.40;;;0.80;;
71606;SDS011;60641;53.556;9.914;2023-03-25T15:00:58;6.50;;;0.90;;
71606;SDS011;60641;53.556;9.914;2023-03-25T15:03:31;5.50;;;1.00;;
71606;SDS011;60641;53.556;9.914;2023-03-25T15:06:01;4.10;;;0.70;;
71606;SDS011;60641;53.556;9.914;2023-03-25T15:11:13;6.90;;;0.90;;
71606;SDS011;60641;53.556;9.914;2023-03-25T15:13:45;5.80;;;0.90;;
71606;SDS011;60641;53.556;9.914;2023-03-25T15:16:34;4.20;;;0.60;;
71606;SDS011;60641;53.556;9.914;2023-03-25T15:19:10;5.40;;;0.70;;
71606;SDS011;60641;53.556;9.914;2023-03-25T15:22:24;5.10;;;0.80;;
71606;SDS011;60641;53.556;9.914;2023-03-25T15:24:36;2.80;;;0.60;;
71606;SDS011;60641;53.556;9.914;2023-03-25T15:27:07;4.40;;;0.80;;
71606;SDS011;60641;53.556;9.914;2023-03-25T15:40:29;5.40;;;0.80;;
71606;SDS011;60641;53.556;9.914;2023-03-25T15:43:08;3.20;;;0.60;;
71606;SDS011;60641;53.556;9.914;2023-03-25T15:48:32;3.40;;;0.50;;
71606;SDS011;60641;53.556;9.914;2023-03-25T15:56:10;3.00;;;0.50;;
71606;SDS011;60641;53.556;9.914;2023-03-25T15:58:44;2.00;;;0.40;;
71606;SDS011;60641;53.556;9.914;2023-03-25T16:01:29;2.20;;;0.50;;
71606;SDS011;60641;53.556;9.914;2023-03-25T16:03:59;2.70;;;0.50;;
71606;SDS011;60641;53.556;9.914;2023-03-25T16:06:29;3.90;;;0.70;;
71606;SDS011;60641;53.556;9.914;2023-03-25T16:08:56;2.70;;;0.40;;
71606;SDS011;60641;53.556;9.914;2023-03-25T16:11:25;3.00;;;0.60;;
71606;SDS011;60641;53.556;9.914;2023-03-25T16:14:00;1.60;;;0.40;;
71606;SDS011;60641;53.556;9.914;2023-03-25T16:16:27;4.20;;;0.60;;
71606;SDS011;60641;53.556;9.914;2023-03-25T16:18:59;4.40;;;1.00;;
71606;SDS011;60641;53.556;9.914;2023-03-25T16:21:27;3.90;;;0.80;;
71606;SDS011;60641;53.556;9.914;2023-03-25T16:23:55;3.70;;;0.50;;
71606;SDS011;60641;53.556;9.914;2023-03-25T16:26:34;5.10;;;1.00;;
71606;SDS011;60641;53.556;9.914;2023-03-25T16:29:07;3.00;;;0.60;;
71606;SDS011;60641;53.556;9.914;2023-03-25T16:34:32;3.40;;;0.70;;
71606;SDS011;60641;53.556;9.914;2023-03-25T16:37:00;6.00;;;0.90;;
71606;SDS011;60641;53.556;9.914;2023-03-25T16:39:29;3.00;;;0.70;;
71606;SDS011;60641;53.556;9.914;2023-03-25T16:42:04;4.60;;;0.60;;
71606;SDS011;60641;53.556;9.914;2023-03-25T16:44:36;5.60;;;0.70;;
71606;SDS011;60641;53.556;9.914;2023-03-25T16:47:03;1.50;;;0.40;;
71606;SDS011;60641;53.556;9.914;2023-03-25T16:49:31;1.80;;;0.40;;
71606;SDS011;60641;53.556;9.914;2023-03-25T16:52:00;2.10;;;0.30;;
71606;SDS011;60641;53.556;9.914;2023-03-25T16:57:25;1.10;;;0.30;;
71606;SDS011;60641;53.556;9.914;2023-03-25T16:59:54;1.80;;;0.40;;
71606;SDS011;60641;53.556;9.914;2023-03-25T17:02:30;3.20;;;0.40;;
71606;SDS011;60641;53.556;9.914;2023-03-25T17:05:14;2.70;;;0.60;;
71606;SDS011;60641;53.556;9.914;2023-03-25T17:07:55;3.20;;;0.60;;
71606;SDS011;60641;53.556;9.914;2023-03-25T17:10:31;2.40;;;0.60;;
71606;SDS011;60641;53.556;9.914;2023-03-25T17:13:03;5.40;;;1.10;;
71606;SDS011;60641;53.556;9.914;2023-03-25T17:15:35;12.30;;;3.00;;
71606;SDS011;60641;53.556;9.914;2023-03-25T17:18:03;4.90;;;1.30;;
71606;SDS011;60641;53.556;9.914;2023-03-25T17:23:06;3.00;;;0.70;;
71606;SDS011;60641;53.556;9.914;2023-03-25T17:28:31;2.10;;;0.70;;
71606;SDS011;60641;53.556;9.914;2023-03-25T17:31:06;3.50;;;0.80;;
71606;SDS011;60641;53.556;9.914;2023-03-25T17:34:11;3.40;;;0.60;;
71606;SDS011;60641;53.556;9.914;2023-03-25T17:36:41;2.10;;;0.50;;
71606;SDS011;60641;53.556;9.914;2023-03-25T17:39:17;2.10;;;0.60;;
71606;SDS011;60641;53.556;9.914;2023-03-25T17:41:44;2.10;;;0.60;;
71606;SDS011;60641;53.556;9.914;2023-03-25T17:44:14;3.50;;;0.60;;
71606;SDS011;60641;53.556;9.914;2023-03-25T17:46:42;2.70;;;0.70;;
71606;SDS011;60641;53.556;9.914;2023-03-25T17:49:11;2.60;;;0.70;;
71606;SDS011;60641;53.556;9.914;2023-03-25T17:51:40;4.40;;;0.50;;
71606;SDS011;60641;53.556;9.914;2023-03-25T17:54:07;5.30;;;0.70;;
71606;SDS011;60641;53.556;9.914;2023-03-25T17:56:34;5.50;;;0.80;;
71606;SDS011;60641;53.556;9.914;2023-03-25T17:59:13;2.70;;;0.60;;
71606;SDS011;60641;53.556;9.914;2023-03-25T18:01:42;2.40;;;0.40;;
71606;SDS011;60641;53.556;9.914;2023-03-25T18:04:10;5.30;;;0.50;;
71606;SDS011;60641;53.556;9.914;2023-03-25T18:06:36;2.90;;;0.50;;
71606;SDS011;60641;53.556;9.914;2023-03-25T18:09:08;5.70;;;1.30;;